Weather at Ulu Tomani Airport

Public forecast

Using degrees Celsius for public forecast. Weather courtesy of forecast.io.

Closest aviation weather report (METAR) to Ulu Tomani Airport

Closest report is Labuan Airport, 51.6 nm (95.5 km) NW. Retrieved 2022/08/17 16:00 UTC (39 minutes ago):

WBKL 171600Z 00000KT 9999 FEW014 26/25 Q1010

Closest aviation forecast (TAF) to Ulu Tomani Airport

Closest forecast is Labuan Airport, 51.6 nm (95.5 km) NW. Retrieved 2022/08/17 12:00 UTC (5 hours ago):

TAF WBKL 171100Z 1712/1812 VRB03KT 9999 FEW015